sensor_id;sensor_type;location;lat;lon;timestamp;pressure;altitude;pressure_sealevel;temperature;humidity
22025;BME280;11176;51.448;6.650;2023-05-02T00:00:46;38566.63;;;-141.29;94.88
22025;BME280;11176;51.448;6.650;2023-05-02T00:03:13;38542.69;;;-141.29;94.67
22025;BME280;11176;51.448;6.650;2023-05-02T00:05:39;38534.72;;;-141.29;94.52
22025;BME280;11176;51.448;6.650;2023-05-02T00:08:06;38562.63;;;-141.29;94.89
22025;BME280;11176;51.448;6.650;2023-05-02T00:10:33;38560.63;;;-141.29;94.59
22025;BME280;11176;51.448;6.650;2023-05-02T00:13:00;38562.63;;;-141.29;94.75
22025;BME280;11176;51.448;6.650;2023-05-02T00:15:26;38576.59;;;-141.29;94.88
22025;BME280;11176;51.448;6.650;2023-05-02T00:17:53;38576.59;;;-141.29;94.66
22025;BME280;11176;51.448;6.650;2023-05-02T00:20:20;38548.66;;;-141.29;94.60
22025;BME280;11176;51.448;6.650;2023-05-02T00:22:46;38590.56;;;-141.29;95.28
22025;BME280;11176;51.448;6.650;2023-05-02T00:25:13;38578.59;;;-141.29;96.30
22025;BME280;11176;51.448;6.650;2023-05-02T00:27:42;38582.56;;;-141.29;95.62
22025;BME280;11176;51.448;6.650;2023-05-02T00:30:09;38580.56;;;-141.29;95.79
22025;BME280;11176;51.448;6.650;2023-05-02T00:32:36;38590.56;;;-141.29;96.39
22025;BME280;11176;51.448;6.650;2023-05-02T00:35:03;38606.50;;;-141.29;96.25
22025;BME280;11176;51.448;6.650;2023-05-02T00:37:30;38610.50;;;-141.29;96.31
22025;BME280;11176;51.448;6.650;2023-05-02T00:39:57;38654.38;;;-141.29;96.60
22025;BME280;11176;51.448;6.650;2023-05-02T00:42:24;38610.50;;;-141.29;96.78
22025;BME280;11176;51.448;6.650;2023-05-02T00:44:50;38642.41;;;-141.29;97.19
22025;BME280;11176;51.448;6.650;2023-05-02T00:47:17;38646.38;;;-141.29;97.47
22025;BME280;11176;51.448;6.650;2023-05-02T00:49:43;38682.28;;;-141.29;97.58
22025;BME280;11176;51.448;6.650;2023-05-02T00:52:09;38678.31;;;-141.29;97.67
22025;BME280;11176;51.448;6.650;2023-05-02T00:54:37;38684.28;;;-141.29;97.80
22025;BME280;11176;51.448;6.650;2023-05-02T00:57:05;38734.16;;;-141.29;98.21
22025;BME280;11176;51.448;6.650;2023-05-02T00:59:33;38726.16;;;-141.29;98.55
22025;BME280;11176;51.448;6.650;2023-05-02T01:02:21;38734.16;;;-141.29;98.84
22025;BME280;11176;51.448;6.650;2023-05-02T01:05:10;38754.09;;;-141.29;99.65
22025;BME280;11176;51.448;6.650;2023-05-02T01:13:10;38863.78;;;-141.29;99.82
22025;BME280;11176;51.448;6.650;2023-05-02T01:15:38;38841.84;;;-141.29;99.73
22025;BME280;11176;51.448;6.650;2023-05-02T01:18:08;38863.78;;;-141.29;99.79
22025;BME280;11176;51.448;6.650;2023-05-02T01:20:38;38883.72;;;-141.29;99.85
22025;BME280;11176;51.448;6.650;2023-05-02T01:23:24;38925.63;;;-141.29;100.00
22025;BME280;11176;51.448;6.650;2023-05-02T01:29:02;38977.47;;;-141.29;100.00
22025;BME280;11176;51.448;6.650;2023-05-02T01:31:40;38985.47;;;-141.29;100.00
22025;BME280;11176;51.448;6.650;2023-05-02T01:34:09;39023.34;;;-141.29;100.00
22025;BME280;11176;51.448;6.650;2023-05-02T01:36:41;39017.38;;;-141.29;99.64
22025;BME280;11176;51.448;6.650;2023-05-02T01:39:16;39025.34;;;-141.29;99.87
22025;BME280;11176;51.448;6.650;2023-05-02T01:41:45;39045.28;;;-141.29;99.75
22025;BME280;11176;51.448;6.650;2023-05-02T01:44:13;39069.22;;;-141.29;99.69
22025;BME280;11176;51.448;6.650;2023-05-02T01:46:40;39101.16;;;-141.29;99.64
22025;BME280;11176;51.448;6.650;2023-05-02T01:49:09;39121.09;;;-141.29;100.00
22025;BME280;11176;51.448;6.650;2023-05-02T01:51:43;39109.13;;;-141.29;99.79
22025;BME280;11176;51.448;6.650;2023-05-02T01:54:12;39141.03;;;-141.29;99.68
22025;BME280;11176;51.448;6.650;2023-05-02T01:56:41;39125.09;;;-141.29;99.54
22025;BME280;11176;51.448;6.650;2023-05-02T01:59:12;39129.06;;;-141.29;99.91
22025;BME280;11176;51.448;6.650;2023-05-02T02:01:40;39161.00;;;-141.29;100.00
22025;BME280;11176;51.448;6.650;2023-05-02T02:04:11;39155.00;;;-141.29;100.00
22025;BME280;11176;51.448;6.650;2023-05-02T02:06:44;39164.97;;;-141.29;99.85
22025;BME280;11176;51.448;6.650;2023-05-02T02:09:12;39180.94;;;-141.29;100.00
22025;BME280;11176;51.448;6.650;2023-05-02T02:11:50;39206.88;;;-141.29;100.00
22025;BME280;11176;51.448;6.650;2023-05-02T02:14:20;39188.91;;;-141.29;99.79
22025;BME280;11176;51.448;6.650;2023-05-02T02:16:49;39208.84;;;-141.29;99.76
22025;BME280;11176;51.448;6.650;2023-05-02T02:19:18;39190.91;;;-141.29;99.53
22025;BME280;11176;51.448;6.650;2023-05-02T02:21:46;39200.88;;;-141.29;99.56
22025;BME280;11176;51.448;6.650;2023-05-02T02:24:16;39204.88;;;-141.29;99.24
22025;BME280;11176;51.448;6.650;2023-05-02T02:26:43;39228.81;;;-141.29;98.91
22025;BME280;11176;51.448;6.650;2023-05-02T02:29:11;39218.84;;;-141.29;98.68
22025;BME280;11176;51.448;6.650;2023-05-02T02:31:38;39230.81;;;-141.29;98.62
22025;BME280;11176;51.448;6.650;2023-05-02T02:34:05;39232.78;;;-141.29;98.86
22025;BME280;11176;51.448;6.650;2023-05-02T02:36:38;39248.75;;;-141.29;99.00
22025;BME280;11176;51.448;6.650;2023-05-02T02:42:10;39232.78;;;-141.29;98.86
22025;BME280;11176;51.448;6.650;2023-05-02T02:47:40;39238.78;;;-141.29;98.15
22025;BME280;11176;51.448;6.650;2023-05-02T02:50:15;39246.75;;;-141.29;97.90
22025;BME280;11176;51.448;6.650;2023-05-02T02:52:56;39256.72;;;-141.29;97.71
22025;BME280;11176;51.448;6.650;2023-05-02T02:58:29;39208.84;;;-141.29;97.11
22025;BME280;11176;51.448;6.650;2023-05-02T03:01:02;39180.94;;;-141.29;96.71
22025;BME280;11176;51.448;6.650;2023-05-02T03:03:29;39186.91;;;-141.29;96.35
22025;BME280;11176;51.448;6.650;2023-05-02T03:05:58;39180.94;;;-141.29;96.36
22025;BME280;11176;51.448;6.650;2023-05-02T03:08:26;39157.00;;;-141.29;96.37
22025;BME280;11176;51.448;6.650;2023-05-02T03:10:52;39149.03;;;-141.29;95.90
22025;BME280;11176;51.448;6.650;2023-05-02T03:13:18;39141.03;;;-141.29;95.53
22025;BME280;11176;51.448;6.650;2023-05-02T03:18:25;39139.03;;;-141.29;95.02
22025;BME280;11176;51.448;6.650;2023-05-02T03:20:52;39157.00;;;-141.29;95.38
22025;BME280;11176;51.448;6.650;2023-05-02T03:23:19;39155.00;;;-141.29;95.11
22025;BME280;11176;51.448;6.650;2023-05-02T03:25:46;39135.06;;;-141.29;94.79
22025;BME280;11176;51.448;6.650;2023-05-02T03:28:18;39127.06;;;-141.29;94.39
22025;BME280;11176;51.448;6.650;2023-05-02T03:30:47;39131.06;;;-141.29;94.34
22025;BME280;11176;51.448;6.650;2023-05-02T03:33:14;39131.06;;;-141.29;94.39
22025;BME280;11176;51.448;6.650;2023-05-02T03:35:42;39127.06;;;-141.29;94.13
22025;BME280;11176;51.448;6.650;2023-05-02T03:38:11;39131.06;;;-141.29;94.10
22025;BME280;11176;51.448;6.650;2023-05-02T03:40:38;39113.13;;;-141.29;93.71
22025;BME280;11176;51.448;6.650;2023-05-02T03:43:08;39093.16;;;-141.29;93.49
22025;BME280;11176;51.448;6.650;2023-05-02T03:45:35;39117.09;;;-141.29;93.83
22025;BME280;11176;51.448;6.650;2023-05-02T03:48:01;39125.09;;;-141.29;93.84
22025;BME280;11176;51.448;6.650;2023-05-02T03:50:29;39107.13;;;-141.29;93.62
22025;BME280;11176;51.448;6.650;2023-05-02T03:52:56;39087.19;;;-141.29;93.73
22025;BME280;11176;51.448;6.650;2023-05-02T03:55:38;39117.09;;;-141.29;94.27
22025;BME280;11176;51.448;6.650;2023-05-02T03:58:05;39097.16;;;-141.29;94.59
22025;BME280;11176;51.448;6.650;2023-05-02T04:00:33;39109.13;;;-141.29;94.62
22025;BME280;11176;51.448;6.650;2023-05-02T04:03:03;39129.06;;;-141.29;94.97
22025;BME280;11176;51.448;6.650;2023-05-02T04:05:32;39155.00;;;-141.29;94.50
22025;BME280;11176;51.448;6.650;2023-05-02T04:08:00;39129.06;;;-141.29;94.86
22025;BME280;11176;51.448;6.650;2023-05-02T04:10:28;39133.06;;;-141.29;95.57
22025;BME280;11176;51.448;6.650;2023-05-02T04:12:58;39161.00;;;-141.29;95.58
22025;BME280;11176;51.448;6.650;2023-05-02T04:15:26;39170.97;;;-141.29;95.61
22025;BME280;11176;51.448;6.650;2023-05-02T04:17:54;39159.00;;;-141.29;95.91
22025;BME280;11176;51.448;6.650;2023-05-02T04:20:20;39180.94;;;-141.29;96.23
22025;BME280;11176;51.448;6.650;2023-05-02T04:22:51;39196.88;;;-141.29;96.69
22025;BME280;11176;51.448;6.650;2023-05-02T04:25:18;39216.84;;;-141.29;98.35
22025;BME280;11176;51.448;6.650;2023-05-02T04:27:45;39212.84;;;-141.29;99.51
22025;BME280;11176;51.448;6.650;2023-05-02T04:30:15;39240.78;;;-141.29;100.00
22025;BME280;11176;51.448;6.650;2023-05-02T04:32:47;39292.63;;;-141.29;100.00
22025;BME280;11176;51.448;6.650;2023-05-02T04:35:14;39324.56;;;-141.29;100.00
22025;BME280;11176;51.448;6.650;2023-05-02T04:37:41;39386.41;;;-141.29;100.00
22025;BME280;11176;51.448;6.650;2023-05-02T04:40:08;39390.38;;;-141.29;100.00
22025;BME280;11176;51.448;6.650;2023-05-02T04:42:37;39444.25;;;-141.29;100.00
22025;BME280;11176;51.448;6.650;2023-05-02T04:45:13;39464.19;;;-141.29;100.00
22025;BME280;11176;51.448;6.650;2023-05-02T04:47:41;39534.00;;;-141.29;100.00
22025;BME280;11176;51.448;6.650;2023-05-02T04:50:08;39563.94;;;-141.29;100.00
22025;BME280;11176;51.448;6.650;2023-05-02T04:52:35;39561.94;;;-141.29;100.00
22025;BME280;11176;51.448;6.650;2023-05-02T04:55:01;39651.72;;;-141.29;100.00
22025;BME280;11176;51.448;6.650;2023-05-02T04:57:28;39709.56;;;-141.29;100.00
22025;BME280;11176;51.448;6.650;2023-05-02T04:59:58;39781.41;;;-141.29;100.00
22025;BME280;11176;51.448;6.650;2023-05-02T05:02:25;39813.31;;;-141.29;100.00
22025;BME280;11176;51.448;6.650;2023-05-02T05:04:53;39807.34;;;-141.29;100.00
22025;BME280;11176;51.448;6.650;2023-05-02T05:07:20;39855.22;;;-141.29;100.00
22025;BME280;11176;51.448;6.650;2023-05-02T05:09:50;39855.22;;;-141.29;100.00
22025;BME280;11176;51.448;6.650;2023-05-02T05:12:21;39843.25;;;-141.29;100.00
22025;BME280;11176;51.448;6.650;2023-05-02T05:14:48;39905.09;;;-141.29;100.00
22025;BME280;11176;51.448;6.650;2023-05-02T05:17:16;39915.06;;;-141.29;100.00
22025;BME280;11176;51.448;6.650;2023-05-02T05:19:43;39939.00;;;-141.29;100.00
22025;BME280;11176;51.448;6.650;2023-05-02T05:22:10;40012.84;;;-141.29;100.00
22025;BME280;11176;51.448;6.650;2023-05-02T05:24:37;40056.72;;;-141.29;100.00
22025;BME280;11176;51.448;6.650;2023-05-02T05:27:05;40070.69;;;-141.29;100.00
22025;BME280;11176;51.448;6.650;2023-05-02T05:29:32;40114.59;;;-141.29;100.00
22025;BME280;11176;51.448;6.650;2023-05-02T05:31:58;40178.44;;;-141.29;100.00
22025;BME280;11176;51.448;6.650;2023-05-02T05:34:26;40174.44;;;-141.29;100.00
22025;BME280;11176;51.448;6.650;2023-05-02T05:36:56;40184.44;;;-141.29;100.00
22025;BME280;11176;51.448;6.650;2023-05-02T05:39:23;40206.38;;;-141.29;100.00
22025;BME280;11176;51.448;6.650;2023-05-02T05:41:52;40202.38;;;-141.29;100.00
22025;BME280;11176;51.448;6.650;2023-05-02T05:44:21;40204.38;;;-141.29;100.00
22025;BME280;11176;51.448;6.650;2023-05-02T05:46:48;40202.38;;;-141.29;100.00
22025;BME280;11176;51.448;6.650;2023-05-02T05:49:15;40192.41;;;-141.29;100.00
22025;BME280;11176;51.448;6.650;2023-05-02T05:51:43;40160.47;;;-141.29;100.00
22025;BME280;11176;51.448;6.650;2023-05-02T05:54:11;40170.47;;;-141.29;100.00
22025;BME280;11176;51.448;6.650;2023-05-02T05:56:38;40160.47;;;-141.29;100.00
22025;BME280;11176;51.448;6.650;2023-05-02T05:59:09;40126.56;;;-141.29;100.00
22025;BME280;11176;51.448;6.650;2023-05-02T06:01:36;40110.59;;;-141.29;100.00
22025;BME280;11176;51.448;6.650;2023-05-02T06:04:04;40076.69;;;-141.29;100.00
22025;BME280;11176;51.448;6.650;2023-05-02T06:06:33;40046.75;;;-141.29;100.00
22025;BME280;11176;51.448;6.650;2023-05-02T06:09:04;40046.75;;;-141.29;100.00
22025;BME280;11176;51.448;6.650;2023-05-02T06:11:31;40038.78;;;-141.29;100.00
22025;BME280;11176;51.448;6.650;2023-05-02T06:13:58;39978.91;;;-141.29;100.00
22025;BME280;11176;51.448;6.650;2023-05-02T06:16:24;39988.88;;;-141.29;100.00
22025;BME280;11176;51.448;6.650;2023-05-02T06:18:51;39943.00;;;-141.29;100.00
22025;BME280;11176;51.448;6.650;2023-05-02T06:21:18;39919.06;;;-141.29;99.60
22025;BME280;11176;51.448;6.650;2023-05-02T06:23:45;39923.06;;;-141.29;99.74
22025;BME280;11176;51.448;6.650;2023-05-02T06:26:12;39903.09;;;-141.29;99.42
22025;BME280;11176;51.448;6.650;2023-05-02T06:28:38;39899.09;;;-141.29;99.34
22025;BME280;11176;51.448;6.650;2023-05-02T06:31:05;39881.16;;;-141.29;99.91
22025;BME280;11176;51.448;6.650;2023-05-02T06:33:32;39925.03;;;-141.29;100.00
22025;BME280;11176;51.448;6.650;2023-05-02T06:35:59;39931.03;;;-141.29;100.00
22025;BME280;11176;51.448;6.650;2023-05-02T06:38:27;39947.00;;;-141.29;100.00
22025;BME280;11176;51.448;6.650;2023-05-02T06:40:53;39927.03;;;-141.29;99.94
22025;BME280;11176;51.448;6.650;2023-05-02T06:43:20;39935.03;;;-141.29;99.30
22025;BME280;11176;51.448;6.650;2023-05-02T06:45:47;39887.13;;;-141.29;98.48
22025;BME280;11176;51.448;6.650;2023-05-02T06:48:13;39881.16;;;-141.29;98.22
22025;BME280;11176;51.448;6.650;2023-05-02T06:50:40;39875.16;;;-141.29;98.28
22025;BME280;11176;51.448;6.650;2023-05-02T06:53:06;39885.16;;;-141.29;98.60
22025;BME280;11176;51.448;6.650;2023-05-02T06:55:33;39835.25;;;-141.29;97.05
22025;BME280;11176;51.448;6.650;2023-05-02T06:57:59;39749.47;;;-141.29;95.27
22025;BME280;11176;51.448;6.650;2023-05-02T07:00:26;39707.56;;;-141.29;93.58
22025;BME280;11176;51.448;6.650;2023-05-02T07:02:52;39605.84;;;-141.29;91.59
22025;BME280;11176;51.448;6.650;2023-05-02T07:05:19;39540.00;;;-141.29;89.95
22025;BME280;11176;51.448;6.650;2023-05-02T07:07:45;39506.09;;;-141.29;88.35
22025;BME280;11176;51.448;6.650;2023-05-02T07:10:12;39500.09;;;-141.29;88.41
22025;BME280;11176;51.448;6.650;2023-05-02T07:12:38;39494.13;;;-141.29;88.73
22025;BME280;11176;51.448;6.650;2023-05-02T07:15:05;39438.25;;;-141.29;88.71
22025;BME280;11176;51.448;6.650;2023-05-02T07:17:32;39462.19;;;-141.29;89.07
22025;BME280;11176;51.448;6.650;2023-05-02T07:19:58;39476.16;;;-141.29;89.37
22025;BME280;11176;51.448;6.650;2023-05-02T07:22:25;39488.13;;;-141.29;89.34
22025;BME280;11176;51.448;6.650;2023-05-02T07:25:01;39452.22;;;-141.29;89.53
22025;BME280;11176;51.448;6.650;2023-05-02T07:27:27;39396.38;;;-141.29;88.65
22025;BME280;11176;51.448;6.650;2023-05-02T07:29:54;39394.38;;;-141.29;88.86
22025;BME280;11176;51.448;6.650;2023-05-02T07:32:20;39396.38;;;-141.29;88.58
22025;BME280;11176;51.448;6.650;2023-05-02T07:34:47;39426.28;;;-141.29;88.92
22025;BME280;11176;51.448;6.650;2023-05-02T07:37:14;39416.31;;;-141.29;88.71
22025;BME280;11176;51.448;6.650;2023-05-02T07:39:40;39420.31;;;-141.29;89.29
22025;BME280;11176;51.448;6.650;2023-05-02T07:42:07;39404.34;;;-141.29;88.74
22025;BME280;11176;51.448;6.650;2023-05-02T07:44:33;39404.34;;;-141.29;88.69
22025;BME280;11176;51.448;6.650;2023-05-02T07:47:01;39372.44;;;-141.29;88.16
22025;BME280;11176;51.448;6.650;2023-05-02T07:49:28;39394.38;;;-141.29;87.93
22025;BME280;11176;51.448;6.650;2023-05-02T07:51:54;39340.50;;;-141.29;86.08
22025;BME280;11176;51.448;6.650;2023-05-02T07:54:21;39344.50;;;-141.29;86.47
22025;BME280;11176;51.448;6.650;2023-05-02T07:56:48;39362.47;;;-141.29;86.42
22025;BME280;11176;51.448;6.650;2023-05-02T07:59:14;39326.56;;;-141.29;86.28
22025;BME280;11176;51.448;6.650;2023-05-02T08:01:41;39328.53;;;-141.29;85.69
22025;BME280;11176;51.448;6.650;2023-05-02T08:04:08;39322.56;;;-141.29;85.95
22025;BME280;11176;51.448;6.650;2023-05-02T08:06:38;39330.53;;;-141.29;85.55
22025;BME280;11176;51.448;6.650;2023-05-02T08:09:05;39312.59;;;-141.29;84.82
22025;BME280;11176;51.448;6.650;2023-05-02T08:11:31;39318.56;;;-141.29;84.69
22025;BME280;11176;51.448;6.650;2023-05-02T08:13:58;39276.69;;;-141.29;84.27
22025;BME280;11176;51.448;6.650;2023-05-02T08:16:24;39312.59;;;-141.29;83.94
22025;BME280;11176;51.448;6.650;2023-05-02T08:18:51;39306.59;;;-141.29;84.24
22025;BME280;11176;51.448;6.650;2023-05-02T08:21:17;39278.69;;;-141.29;83.14
22025;BME280;11176;51.448;6.650;2023-05-02T08:23:44;39300.63;;;-141.29;83.27
22025;BME280;11176;51.448;6.650;2023-05-02T08:26:11;39260.72;;;-141.29;82.15
22025;BME280;11176;51.448;6.650;2023-05-02T08:28:38;39234.78;;;-141.29;82.89
22025;BME280;11176;51.448;6.650;2023-05-02T08:31:04;39196.88;;;-141.29;82.08
22025;BME280;11176;51.448;6.650;2023-05-02T08:33:31;39204.88;;;-141.29;83.04
22025;BME280;11176;51.448;6.650;2023-05-02T08:35:57;39230.81;;;-141.29;83.10
22025;BME280;11176;51.448;6.650;2023-05-02T08:38:24;39214.84;;;-141.29;82.25
22025;BME280;11176;51.448;6.650;2023-05-02T08:40:50;39250.75;;;-141.29;82.83
22025;BME280;11176;51.448;6.650;2023-05-02T08:43:17;39184.91;;;-141.29;80.78
22025;BME280;11176;51.448;6.650;2023-05-02T08:45:44;39157.00;;;-141.29;79.76
22025;BME280;11176;51.448;6.650;2023-05-02T08:48:11;39184.91;;;-141.29;80.14
22025;BME280;11176;51.448;6.650;2023-05-02T08:50:42;39149.03;;;-141.29;78.04
22025;BME280;11176;51.448;6.650;2023-05-02T08:53:11;39137.06;;;-141.29;78.03
22025;BME280;11176;51.448;6.650;2023-05-02T08:55:40;39113.13;;;-141.29;75.86
22025;BME280;11176;51.448;6.650;2023-05-02T08:58:08;39109.13;;;-141.29;74.97
22025;BME280;11176;51.448;6.650;2023-05-02T09:00:40;39089.19;;;-141.29;73.66
22025;BME280;11176;51.448;6.650;2023-05-02T09:03:29;39033.31;;;-141.29;72.48
22025;BME280;11176;51.448;6.650;2023-05-02T09:06:07;39041.31;;;-141.29;72.93
22025;BME280;11176;51.448;6.650;2023-05-02T09:08:35;39017.38;;;-141.29;72.13
22025;BME280;11176;51.448;6.650;2023-05-02T09:11:03;39039.31;;;-141.29;72.57
22025;BME280;11176;51.448;6.650;2023-05-02T09:13:35;39013.38;;;-141.29;71.87
22025;BME280;11176;51.448;6.650;2023-05-02T09:18:32;39059.25;;;-141.29;72.91
22025;BME280;11176;51.448;6.650;2023-05-02T09:21:03;39045.28;;;-141.29;72.93
22025;BME280;11176;51.448;6.650;2023-05-02T09:23:36;39057.25;;;-141.29;71.78
22025;BME280;11176;51.448;6.650;2023-05-02T09:26:29;38973.50;;;-141.29;68.89
22025;BME280;11176;51.448;6.650;2023-05-02T09:29:03;39021.34;;;-141.29;70.58
22025;BME280;11176;51.448;6.650;2023-05-02T09:31:34;39013.38;;;-141.29;70.89
22025;BME280;11176;51.448;6.650;2023-05-02T09:34:08;39021.34;;;-141.29;69.33
22025;BME280;11176;51.448;6.650;2023-05-02T09:36:46;39037.31;;;-141.29;69.54
22025;BME280;11176;51.448;6.650;2023-05-02T09:39:18;39029.34;;;-141.29;68.43
22025;BME280;11176;51.448;6.650;2023-05-02T09:41:48;39005.41;;;-141.29;67.25
22025;BME280;11176;51.448;6.650;2023-05-02T09:44:16;38939.59;;;-141.29;64.45
22025;BME280;11176;51.448;6.650;2023-05-02T09:46:49;38929.59;;;-141.29;64.32
22025;BME280;11176;51.448;6.650;2023-05-02T09:49:16;38925.63;;;-141.29;63.85
22025;BME280;11176;51.448;6.650;2023-05-02T09:51:45;38893.72;;;-141.29;63.43
22025;BME280;11176;51.448;6.650;2023-05-02T09:54:12;38863.78;;;-141.29;63.11
22025;BME280;11176;51.448;6.650;2023-05-02T09:56:55;38837.84;;;-141.29;63.38
22025;BME280;11176;51.448;6.650;2023-05-02T09:59:22;38825.91;;;-141.29;64.33
22025;BME280;11176;51.448;6.650;2023-05-02T10:01:56;38845.84;;;-141.29;64.89
22025;BME280;11176;51.448;6.650;2023-05-02T10:04:25;38877.75;;;-141.29;65.75
22025;BME280;11176;51.448;6.650;2023-05-02T10:06:52;38782.00;;;-141.29;62.45
22025;BME280;11176;51.448;6.650;2023-05-02T10:09:20;38815.91;;;-141.29;64.11
22025;BME280;11176;51.448;6.650;2023-05-02T10:11:52;38770.03;;;-141.29;62.64
22025;BME280;11176;51.448;6.650;2023-05-02T10:14:22;38786.00;;;-141.29;62.12
22025;BME280;11176;51.448;6.650;2023-05-02T10:16:54;38730.16;;;-141.29;60.91
22025;BME280;11176;51.448;6.650;2023-05-02T10:19:27;38766.06;;;-141.29;61.63
22025;BME280;11176;51.448;6.650;2023-05-02T10:21:55;38766.06;;;-141.29;61.91
22025;BME280;11176;51.448;6.650;2023-05-02T10:24:23;38714.19;;;-141.29;58.35
22025;BME280;11176;51.448;6.650;2023-05-02T10:26:50;38688.28;;;-141.29;57.92
22025;BME280;11176;51.448;6.650;2023-05-02T10:29:17;38696.25;;;-141.29;59.24
22025;BME280;11176;51.448;6.650;2023-05-02T10:31:45;38702.22;;;-141.29;60.57
22025;BME280;11176;51.448;6.650;2023-05-02T10:34:13;38750.09;;;-141.29;62.66
22025;BME280;11176;51.448;6.650;2023-05-02T10:36:40;38740.13;;;-141.29;62.77
22025;BME280;11176;51.448;6.650;2023-05-02T10:39:06;38750.09;;;-141.29;62.04
22025;BME280;11176;51.448;6.650;2023-05-02T10:41:33;38648.38;;;-141.29;58.68
22025;BME280;11176;51.448;6.650;2023-05-02T10:44:01;38664.34;;;-141.29;57.73
22025;BME280;11176;51.448;6.650;2023-05-02T10:46:36;38658.34;;;-141.29;57.69
22025;BME280;11176;51.448;6.650;2023-05-02T10:49:07;38656.38;;;-141.29;57.29
22025;BME280;11176;51.448;6.650;2023-05-02T10:51:36;38650.38;;;-141.29;55.83
22025;BME280;11176;51.448;6.650;2023-05-02T10:54:19;38602.50;;;-141.29;53.52
22025;BME280;11176;51.448;6.650;2023-05-02T10:59:39;38694.25;;;-141.29;56.03
22025;BME280;11176;51.448;6.650;2023-05-02T11:05:06;38726.16;;;-141.29;53.07
22025;BME280;11176;51.448;6.650;2023-05-02T11:07:34;38716.19;;;-141.29;52.92
22025;BME280;11176;51.448;6.650;2023-05-02T11:12:48;38700.25;;;-141.29;51.78
22025;BME280;11176;51.448;6.650;2023-05-02T11:20:33;38662.34;;;-141.29;50.87
22025;BME280;11176;51.448;6.650;2023-05-02T11:25:55;38662.34;;;-141.29;48.80
22025;BME280;11176;51.448;6.650;2023-05-02T11:28:40;38624.44;;;-141.29;46.67
22025;BME280;11176;51.448;6.650;2023-05-02T11:33:58;38634.44;;;-141.29;45.51
22025;BME280;11176;51.448;6.650;2023-05-02T11:36:28;38574.59;;;-141.29;42.61
22025;BME280;11176;51.448;6.650;2023-05-02T11:38:55;38554.66;;;-141.29;42.64
22025;BME280;11176;51.448;6.650;2023-05-02T11:41:22;38494.81;;;-141.29;41.08
22025;BME280;11176;51.448;6.650;2023-05-02T11:44:01;38502.78;;;-141.29;41.08
22025;BME280;11176;51.448;6.650;2023-05-02T11:46:29;38423.03;;;-141.29;39.44
22025;BME280;11176;51.448;6.650;2023-05-02T11:48:56;38429.00;;;-141.29;39.24
22025;BME280;11176;51.448;6.650;2023-05-02T11:51:23;38319.31;;;-141.29;37.86
22025;BME280;11176;51.448;6.650;2023-05-02T11:53:49;38373.16;;;-141.29;37.72
22025;BME280;11176;51.448;6.650;2023-05-02T11:56:22;38347.25;;;-141.29;36.35
22025;BME280;11176;51.448;6.650;2023-05-02T11:58:59;38379.16;;;-141.29;36.24
22025;BME280;11176;51.448;6.650;2023-05-02T12:01:26;38397.09;;;-141.29;35.51
22025;BME280;11176;51.448;6.650;2023-05-02T12:04:07;38395.09;;;-141.29;34.90
22025;BME280;11176;51.448;6.650;2023-05-02T12:06:34;38462.91;;;-141.29;34.99
22025;BME280;11176;51.448;6.650;2023-05-02T12:09:13;38506.78;;;-141.29;34.48
22025;BME280;11176;51.448;6.650;2023-05-02T12:11:41;38522.75;;;-141.29;34.61
22025;BME280;11176;51.448;6.650;2023-05-02T12:14:08;38480.84;;;-141.29;33.65
22025;BME280;11176;51.448;6.650;2023-05-02T12:16:34;38480.84;;;-141.29;33.38
22025;BME280;11176;51.448;6.650;2023-05-02T12:19:01;38435.00;;;-141.29;32.72
22025;BME280;11176;51.448;6.650;2023-05-02T12:21:28;38431.00;;;-141.29;32.78
22025;BME280;11176;51.448;6.650;2023-05-02T12:23:55;38371.19;;;-141.29;32.23
22025;BME280;11176;51.448;6.650;2023-05-02T12:26:23;38357.22;;;-141.29;32.45
22025;BME280;11176;51.448;6.650;2023-05-02T12:28:58;38313.34;;;-141.29;32.85
22025;BME280;11176;51.448;6.650;2023-05-02T12:31:27;38281.44;;;-141.29;33.18
22025;BME280;11176;51.448;6.650;2023-05-02T12:33:56;38303.38;;;-141.29;33.38
22025;BME280;11176;51.448;6.650;2023-05-02T12:36:25;38303.38;;;-141.29;33.40
22025;BME280;11176;51.448;6.650;2023-05-02T12:38:56;38243.53;;;-141.29;33.00
22025;BME280;11176;51.448;6.650;2023-05-02T12:41:35;38259.50;;;-141.29;33.28
22025;BME280;11176;51.448;6.650;2023-05-02T12:44:03;38243.53;;;-141.29;33.14
22025;BME280;11176;51.448;6.650;2023-05-02T12:46:30;38247.53;;;-141.29;33.07
22025;BME280;11176;51.448;6.650;2023-05-02T12:49:07;38235.56;;;-141.29;32.94
22025;BME280;11176;51.448;6.650;2023-05-02T12:51:35;38263.50;;;-141.29;32.99
22025;BME280;11176;51.448;6.650;2023-05-02T12:54:02;38263.50;;;-141.29;32.86
22025;BME280;11176;51.448;6.650;2023-05-02T12:56:29;38199.69;;;-141.29;31.78
22025;BME280;11176;51.448;6.650;2023-05-02T12:58:59;38139.84;;;-141.29;31.51
22025;BME280;11176;51.448;6.650;2023-05-02T13:01:26;38131.88;;;-141.29;31.29
22025;BME280;11176;51.448;6.650;2023-05-02T13:03:55;38103.97;;;-141.29;31.60
22025;BME280;11176;51.448;6.650;2023-05-02T13:06:22;38060.09;;;-141.29;31.36
22025;BME280;11176;51.448;6.650;2023-05-02T13:08:48;38107.94;;;-141.29;31.57
22025;BME280;11176;51.448;6.650;2023-05-02T13:11:15;38155.81;;;-141.29;32.46
22025;BME280;11176;51.448;6.650;2023-05-02T13:13:43;38195.69;;;-141.29;32.59
22025;BME280;11176;51.448;6.650;2023-05-02T13:16:09;38247.53;;;-141.29;32.62
22025;BME280;11176;51.448;6.650;2023-05-02T13:18:36;38281.44;;;-141.29;32.17
22025;BME280;11176;51.448;6.650;2023-05-02T13:21:03;38293.41;;;-141.29;31.54
22025;BME280;11176;51.448;6.650;2023-05-02T13:23:30;38313.34;;;-141.29;31.47
22025;BME280;11176;51.448;6.650;2023-05-02T13:25:56;38305.38;;;-141.29;30.77
22025;BME280;11176;51.448;6.650;2023-05-02T13:28:24;38275.44;;;-141.29;30.14